sensor_id;sensor_type;location;lat;lon;timestamp;temperature;humidity
13686;DHT22;6915;48.296;8.874;2022-09-11T00:02:17;13.90;99.90
13686;DHT22;6915;48.296;8.874;2022-09-11T00:04:44;13.90;99.90
13686;DHT22;6915;48.296;8.874;2022-09-11T00:07:11;13.80;99.90
13686;DHT22;6915;48.296;8.874;2022-09-11T00:09:38;13.80;99.90
13686;DHT22;6915;48.296;8.874;2022-09-11T00:12:06;13.80;99.90
13686;DHT22;6915;48.296;8.874;2022-09-11T00:14:34;13.80;99.90
13686;DHT22;6915;48.296;8.874;2022-09-11T00:17:01;13.80;99.90
13686;DHT22;6915;48.296;8.874;2022-09-11T00:19:28;13.90;99.90
13686;DHT22;6915;48.296;8.874;2022-09-11T00:21:55;13.80;99.90
13686;DHT22;6915;48.296;8.874;2022-09-11T00:24:22;13.70;99.90
13686;DHT22;6915;48.296;8.874;2022-09-11T00:26:49;13.80;99.90
13686;DHT22;6915;48.296;8.874;2022-09-11T00:29:17;13.70;99.90
13686;DHT22;6915;48.296;8.874;2022-09-11T00:31:44;13.70;99.90
13686;DHT22;6915;48.296;8.874;2022-09-11T00:34:13;13.80;99.90
13686;DHT22;6915;48.296;8.874;2022-09-11T00:36:40;13.70;99.90
13686;DHT22;6915;48.296;8.874;2022-09-11T00:39:09;13.70;99.90
13686;DHT22;6915;48.296;8.874;2022-09-11T00:41:38;13.70;99.90
13686;DHT22;6915;48.296;8.874;2022-09-11T00:44:07;13.70;99.90
13686;DHT22;6915;48.296;8.874;2022-09-11T00:46:39;13.60;99.90
13686;DHT22;6915;48.296;8.874;2022-09-11T00:49:15;13.60;99.90
13686;DHT22;6915;48.296;8.874;2022-09-11T00:51:45;13.60;99.90
13686;DHT22;6915;48.296;8.874;2022-09-11T00:54:15;13.60;99.90
13686;DHT22;6915;48.296;8.874;2022-09-11T00:56:44;13.60;99.90
13686;DHT22;6915;48.296;8.874;2022-09-11T00:59:11;13.50;99.90
13686;DHT22;6915;48.296;8.874;2022-09-11T01:01:40;13.70;99.90
13686;DHT22;6915;48.296;8.874;2022-09-11T01:04:08;13.70;99.90
13686;DHT22;6915;48.296;8.874;2022-09-11T01:06:36;13.70;99.90
13686;DHT22;6915;48.296;8.874;2022-09-11T01:09:03;13.60;99.90
13686;DHT22;6915;48.296;8.874;2022-09-11T01:11:38;13.70;99.90
13686;DHT22;6915;48.296;8.874;2022-09-11T01:14:15;13.70;99.90
13686;DHT22;6915;48.296;8.874;2022-09-11T01:16:47;13.70;99.90
13686;DHT22;6915;48.296;8.874;2022-09-11T01:19:29;13.70;99.90
13686;DHT22;6915;48.296;8.874;2022-09-11T01:22:21;13.80;99.90
13686;DHT22;6915;48.296;8.874;2022-09-11T01:25:02;13.80;99.90
13686;DHT22;6915;48.296;8.874;2022-09-11T01:27:41;13.80;99.90
13686;DHT22;6915;48.296;8.874;2022-09-11T01:30:10;13.80;99.90
13686;DHT22;6915;48.296;8.874;2022-09-11T01:32:55;13.80;99.90
13686;DHT22;6915;48.296;8.874;2022-09-11T01:35:34;13.80;99.90
13686;DHT22;6915;48.296;8.874;2022-09-11T01:38:06;13.70;99.90
13686;DHT22;6915;48.296;8.874;2022-09-11T01:40:39;13.70;99.90
13686;DHT22;6915;48.296;8.874;2022-09-11T01:43:14;13.70;99.90
13686;DHT22;6915;48.296;8.874;2022-09-11T01:45:45;13.70;99.90
13686;DHT22;6915;48.296;8.874;2022-09-11T01:48:15;13.60;99.90
13686;DHT22;6915;48.296;8.874;2022-09-11T01:50:45;13.60;99.90
13686;DHT22;6915;48.296;8.874;2022-09-11T01:53:16;13.60;99.90
13686;DHT22;6915;48.296;8.874;2022-09-11T01:55:50;13.50;99.90
13686;DHT22;6915;48.296;8.874;2022-09-11T01:58:25;13.60;99.90
13686;DHT22;6915;48.296;8.874;2022-09-11T02:00:56;13.60;99.90
13686;DHT22;6915;48.296;8.874;2022-09-11T02:03:27;13.60;99.90
13686;DHT22;6915;48.296;8.874;2022-09-11T02:05:59;13.60;99.90
13686;DHT22;6915;48.296;8.874;2022-09-11T02:08:30;13.60;99.90
13686;DHT22;6915;48.296;8.874;2022-09-11T02:11:04;13.70;99.90
13686;DHT22;6915;48.296;8.874;2022-09-11T02:13:36;13.70;99.90
13686;DHT22;6915;48.296;8.874;2022-09-11T02:16:12;13.70;99.90
13686;DHT22;6915;48.296;8.874;2022-09-11T02:18:44;13.70;99.90
13686;DHT22;6915;48.296;8.874;2022-09-11T02:21:13;13.70;99.90
13686;DHT22;6915;48.296;8.874;2022-09-11T02:23:40;13.70;99.90
13686;DHT22;6915;48.296;8.874;2022-09-11T02:26:08;13.70;99.90
13686;DHT22;6915;48.296;8.874;2022-09-11T02:28:39;13.70;99.90
13686;DHT22;6915;48.296;8.874;2022-09-11T02:31:06;13.60;99.90
13686;DHT22;6915;48.296;8.874;2022-09-11T02:33:34;13.70;99.90
13686;DHT22;6915;48.296;8.874;2022-09-11T02:36:20;13.70;99.90
13686;DHT22;6915;48.296;8.874;2022-09-11T02:39:01;13.70;99.90
13686;DHT22;6915;48.296;8.874;2022-09-11T02:41:37;13.70;99.90
13686;DHT22;6915;48.296;8.874;2022-09-11T02:44:14;13.70;99.90
13686;DHT22;6915;48.296;8.874;2022-09-11T02:47:08;13.70;99.90
13686;DHT22;6915;48.296;8.874;2022-09-11T02:49:45;13.80;99.90
13686;DHT22;6915;48.296;8.874;2022-09-11T02:52:23;13.90;99.90
13686;DHT22;6915;48.296;8.874;2022-09-11T02:55:02;14.00;99.90
13686;DHT22;6915;48.296;8.874;2022-09-11T02:57:37;13.80;99.90
13686;DHT22;6915;48.296;8.874;2022-09-11T03:00:08;13.80;99.90
13686;DHT22;6915;48.296;8.874;2022-09-11T03:02:39;13.80;99.90
13686;DHT22;6915;48.296;8.874;2022-09-11T03:05:07;13.80;99.90
13686;DHT22;6915;48.296;8.874;2022-09-11T03:07:34;13.80;99.90
13686;DHT22;6915;48.296;8.874;2022-09-11T03:10:01;13.90;99.90
13686;DHT22;6915;48.296;8.874;2022-09-11T03:12:28;13.70;99.90
13686;DHT22;6915;48.296;8.874;2022-09-11T03:14:55;13.70;99.90
13686;DHT22;6915;48.296;8.874;2022-09-11T03:17:24;13.70;99.90
13686;DHT22;6915;48.296;8.874;2022-09-11T03:19:51;13.70;99.90
13686;DHT22;6915;48.296;8.874;2022-09-11T03:22:18;13.70;99.90
13686;DHT22;6915;48.296;8.874;2022-09-11T03:24:45;13.70;99.90
13686;DHT22;6915;48.296;8.874;2022-09-11T03:27:12;13.70;99.90
13686;DHT22;6915;48.296;8.874;2022-09-11T03:29:39;13.70;99.90
13686;DHT22;6915;48.296;8.874;2022-09-11T03:32:06;13.50;99.90
13686;DHT22;6915;48.296;8.874;2022-09-11T03:34:36;13.70;99.90
13686;DHT22;6915;48.296;8.874;2022-09-11T03:37:03;13.70;99.90
13686;DHT22;6915;48.296;8.874;2022-09-11T03:39:29;13.60;99.90
13686;DHT22;6915;48.296;8.874;2022-09-11T03:41:56;13.70;99.90
13686;DHT22;6915;48.296;8.874;2022-09-11T03:44:24;13.60;99.90
13686;DHT22;6915;48.296;8.874;2022-09-11T03:46:51;13.60;99.90
13686;DHT22;6915;48.296;8.874;2022-09-11T03:49:18;13.60;99.90
13686;DHT22;6915;48.296;8.874;2022-09-11T03:51:47;13.60;99.90
13686;DHT22;6915;48.296;8.874;2022-09-11T03:54:14;13.60;99.90
13686;DHT22;6915;48.296;8.874;2022-09-11T03:56:42;13.70;99.90
13686;DHT22;6915;48.296;8.874;2022-09-11T03:59:09;13.70;99.90
13686;DHT22;6915;48.296;8.874;2022-09-11T04:01:36;13.70;99.90
13686;DHT22;6915;48.296;8.874;2022-09-11T04:04:03;13.70;99.90
13686;DHT22;6915;48.296;8.874;2022-09-11T04:06:30;13.70;99.90
13686;DHT22;6915;48.296;8.874;2022-09-11T04:08:59;13.70;99.90
13686;DHT22;6915;48.296;8.874;2022-09-11T04:11:26;13.70;99.90
13686;DHT22;6915;48.296;8.874;2022-09-11T04:13:53;13.60;99.90
13686;DHT22;6915;48.296;8.874;2022-09-11T04:16:20;13.60;99.90
13686;DHT22;6915;48.296;8.874;2022-09-11T04:18:47;13.40;99.90
13686;DHT22;6915;48.296;8.874;2022-09-11T04:21:17;13.60;99.90
13686;DHT22;6915;48.296;8.874;2022-09-11T04:23:44;13.60;99.90
13686;DHT22;6915;48.296;8.874;2022-09-11T04:26:19;13.60;99.90
13686;DHT22;6915;48.296;8.874;2022-09-11T04:28:46;13.60;99.90
13686;DHT22;6915;48.296;8.874;2022-09-11T04:31:14;13.60;99.90
13686;DHT22;6915;48.296;8.874;2022-09-11T04:33:42;13.50;99.90
13686;DHT22;6915;48.296;8.874;2022-09-11T04:36:10;13.60;99.90
13686;DHT22;6915;48.296;8.874;2022-09-11T04:38:39;13.50;99.90
13686;DHT22;6915;48.296;8.874;2022-09-11T04:41:06;13.50;99.90
13686;DHT22;6915;48.296;8.874;2022-09-11T04:43:36;13.50;99.90
13686;DHT22;6915;48.296;8.874;2022-09-11T04:46:05;13.50;99.90
13686;DHT22;6915;48.296;8.874;2022-09-11T04:48:33;13.50;99.90
13686;DHT22;6915;48.296;8.874;2022-09-11T04:51:04;13.50;99.90
13686;DHT22;6915;48.296;8.874;2022-09-11T04:53:32;13.50;99.90
13686;DHT22;6915;48.296;8.874;2022-09-11T04:56:03;13.50;99.90
13686;DHT22;6915;48.296;8.874;2022-09-11T04:58:30;13.50;99.90
13686;DHT22;6915;48.296;8.874;2022-09-11T05:00:59;13.60;99.90
13686;DHT22;6915;48.296;8.874;2022-09-11T05:03:25;13.50;99.90
13686;DHT22;6915;48.296;8.874;2022-09-11T05:05:54;13.50;99.90
13686;DHT22;6915;48.296;8.874;2022-09-11T05:08:23;13.50;99.90
13686;DHT22;6915;48.296;8.874;2022-09-11T05:10:51;13.50;99.90
13686;DHT22;6915;48.296;8.874;2022-09-11T05:13:18;13.50;99.90
13686;DHT22;6915;48.296;8.874;2022-09-11T05:15:45;13.50;99.90
13686;DHT22;6915;48.296;8.874;2022-09-11T05:18:14;13.50;99.90
13686;DHT22;6915;48.296;8.874;2022-09-11T05:20:40;13.60;99.90
13686;DHT22;6915;48.296;8.874;2022-09-11T05:23:10;13.60;99.90
13686;DHT22;6915;48.296;8.874;2022-09-11T05:25:37;13.50;99.90
13686;DHT22;6915;48.296;8.874;2022-09-11T05:28:04;13.50;99.90
13686;DHT22;6915;48.296;8.874;2022-09-11T05:30:31;13.50;99.90
13686;DHT22;6915;48.296;8.874;2022-09-11T05:32:58;13.50;99.90
13686;DHT22;6915;48.296;8.874;2022-09-11T05:35:26;13.50;99.90
13686;DHT22;6915;48.296;8.874;2022-09-11T05:37:53;13.50;99.90
13686;DHT22;6915;48.296;8.874;2022-09-11T05:40:20;13.60;99.90
13686;DHT22;6915;48.296;8.874;2022-09-11T05:42:46;13.50;99.90
13686;DHT22;6915;48.296;8.874;2022-09-11T05:45:13;13.50;99.90
13686;DHT22;6915;48.296;8.874;2022-09-11T05:47:40;13.50;99.90
13686;DHT22;6915;48.296;8.874;2022-09-11T05:50:08;13.50;99.90
13686;DHT22;6915;48.296;8.874;2022-09-11T05:52:36;13.40;99.90
13686;DHT22;6915;48.296;8.874;2022-09-11T05:55:03;13.40;99.90
13686;DHT22;6915;48.296;8.874;2022-09-11T05:57:30;13.40;99.90
13686;DHT22;6915;48.296;8.874;2022-09-11T05:59:57;13.30;99.90
13686;DHT22;6915;48.296;8.874;2022-09-11T06:02:25;13.40;99.90
13686;DHT22;6915;48.296;8.874;2022-09-11T06:04:52;13.50;99.90
13686;DHT22;6915;48.296;8.874;2022-09-11T06:07:19;13.50;99.90
13686;DHT22;6915;48.296;8.874;2022-09-11T06:09:47;13.60;99.90
13686;DHT22;6915;48.296;8.874;2022-09-11T06:12:14;13.70;99.90
13686;DHT22;6915;48.296;8.874;2022-09-11T06:14:43;13.60;99.90
13686;DHT22;6915;48.296;8.874;2022-09-11T06:17:10;13.60;99.90
13686;DHT22;6915;48.296;8.874;2022-09-11T06:19:36;13.70;99.90
13686;DHT22;6915;48.296;8.874;2022-09-11T06:22:03;13.70;99.90
13686;DHT22;6915;48.296;8.874;2022-09-11T06:24:30;13.70;99.90
13686;DHT22;6915;48.296;8.874;2022-09-11T06:26:58;13.70;99.90
13686;DHT22;6915;48.296;8.874;2022-09-11T06:29:25;13.70;99.90
13686;DHT22;6915;48.296;8.874;2022-09-11T06:31:52;13.60;99.90
13686;DHT22;6915;48.296;8.874;2022-09-11T06:34:19;13.60;99.90
13686;DHT22;6915;48.296;8.874;2022-09-11T06:36:46;13.60;99.90
13686;DHT22;6915;48.296;8.874;2022-09-11T06:39:13;13.50;99.90
13686;DHT22;6915;48.296;8.874;2022-09-11T06:41:40;13.50;99.90
13686;DHT22;6915;48.296;8.874;2022-09-11T06:44:09;13.60;99.90
13686;DHT22;6915;48.296;8.874;2022-09-11T06:46:36;13.70;99.90
13686;DHT22;6915;48.296;8.874;2022-09-11T06:49:03;13.60;99.90
13686;DHT22;6915;48.296;8.874;2022-09-11T06:51:31;13.70;99.90
13686;DHT22;6915;48.296;8.874;2022-09-11T06:53:58;13.80;99.90
13686;DHT22;6915;48.296;8.874;2022-09-11T06:56:28;13.80;99.90
13686;DHT22;6915;48.296;8.874;2022-09-11T06:58:57;13.80;99.90
13686;DHT22;6915;48.296;8.874;2022-09-11T07:01:25;13.80;99.90
13686;DHT22;6915;48.296;8.874;2022-09-11T07:03:53;13.90;99.90
13686;DHT22;6915;48.296;8.874;2022-09-11T07:06:22;14.00;99.90
13686;DHT22;6915;48.296;8.874;2022-09-11T07:08:50;14.00;99.90
13686;DHT22;6915;48.296;8.874;2022-09-11T07:11:18;14.00;99.90
13686;DHT22;6915;48.296;8.874;2022-09-11T07:13:45;14.00;99.90
13686;DHT22;6915;48.296;8.874;2022-09-11T07:16:13;14.00;99.90
13686;DHT22;6915;48.296;8.874;2022-09-11T07:18:43;14.00;99.90
13686;DHT22;6915;48.296;8.874;2022-09-11T07:21:12;14.00;99.90
13686;DHT22;6915;48.296;8.874;2022-09-11T07:23:41;14.10;99.90
13686;DHT22;6915;48.296;8.874;2022-09-11T07:26:10;14.10;99.90
13686;DHT22;6915;48.296;8.874;2022-09-11T07:28:38;14.00;99.90
13686;DHT22;6915;48.296;8.874;2022-09-11T07:31:07;14.20;99.90
13686;DHT22;6915;48.296;8.874;2022-09-11T07:33:36;14.20;99.90
13686;DHT22;6915;48.296;8.874;2022-09-11T07:36:09;14.30;99.90
13686;DHT22;6915;48.296;8.874;2022-09-11T07:38:37;14.30;99.90
13686;DHT22;6915;48.296;8.874;2022-09-11T07:41:04;14.40;99.90
13686;DHT22;6915;48.296;8.874;2022-09-11T07:43:31;14.50;99.90
13686;DHT22;6915;48.296;8.874;2022-09-11T07:45:59;14.50;99.90
13686;DHT22;6915;48.296;8.874;2022-09-11T07:48:26;14.60;99.90
13686;DHT22;6915;48.296;8.874;2022-09-11T07:50:57;14.80;99.90
13686;DHT22;6915;48.296;8.874;2022-09-11T07:53:30;14.80;99.90
13686;DHT22;6915;48.296;8.874;2022-09-11T07:56:00;14.90;99.90
13686;DHT22;6915;48.296;8.874;2022-09-11T07:58:31;15.10;99.90
13686;DHT22;6915;48.296;8.874;2022-09-11T08:00:58;15.20;99.90
13686;DHT22;6915;48.296;8.874;2022-09-11T08:03:25;15.30;99.90
13686;DHT22;6915;48.296;8.874;2022-09-11T08:05:56;15.50;99.90
13686;DHT22;6915;48.296;8.874;2022-09-11T08:08:23;15.80;99.90
13686;DHT22;6915;48.296;8.874;2022-09-11T08:10:52;16.00;99.90
13686;DHT22;6915;48.296;8.874;2022-09-11T08:13:20;16.20;99.90
13686;DHT22;6915;48.296;8.874;2022-09-11T08:15:47;16.30;99.90
13686;DHT22;6915;48.296;8.874;2022-09-11T08:18:15;16.30;99.90
13686;DHT22;6915;48.296;8.874;2022-09-11T08:20:42;16.40;99.90
13686;DHT22;6915;48.296;8.874;2022-09-11T08:23:09;16.50;99.90
13686;DHT22;6915;48.296;8.874;2022-09-11T08:25:37;16.50;99.90
13686;DHT22;6915;48.296;8.874;2022-09-11T08:28:06;16.70;99.90
13686;DHT22;6915;48.296;8.874;2022-09-11T08:30:33;16.80;99.90
13686;DHT22;6915;48.296;8.874;2022-09-11T08:33:03;17.00;99.90
13686;DHT22;6915;48.296;8.874;2022-09-11T08:35:30;17.00;99.90
13686;DHT22;6915;48.296;8.874;2022-09-11T08:37:58;16.90;99.90
13686;DHT22;6915;48.296;8.874;2022-09-11T08:40:27;16.90;99.90
13686;DHT22;6915;48.296;8.874;2022-09-11T08:42:56;16.80;99.90
13686;DHT22;6915;48.296;8.874;2022-09-11T08:45:32;16.80;99.90
13686;DHT22;6915;48.296;8.874;2022-09-11T08:48:00;16.70;99.90
13686;DHT22;6915;48.296;8.874;2022-09-11T08:50:31;16.70;99.90
13686;DHT22;6915;48.296;8.874;2022-09-11T08:53:01;16.90;99.90
13686;DHT22;6915;48.296;8.874;2022-09-11T08:55:32;16.90;99.90
13686;DHT22;6915;48.296;8.874;2022-09-11T08:58:08;17.00;99.90
13686;DHT22;6915;48.296;8.874;2022-09-11T09:00:42;17.20;99.90
13686;DHT22;6915;48.296;8.874;2022-09-11T09:03:35;17.40;99.90
13686;DHT22;6915;48.296;8.874;2022-09-11T09:06:17;17.30;99.90
13686;DHT22;6915;48.296;8.874;2022-09-11T09:08:53;17.30;99.90
13686;DHT22;6915;48.296;8.874;2022-09-11T09:11:32;17.20;91.50
13686;DHT22;6915;48.296;8.874;2022-09-11T09:14:22;17.30;99.90
13686;DHT22;6915;48.296;8.874;2022-09-11T09:16:58;17.40;99.90
13686;DHT22;6915;48.296;8.874;2022-09-11T09:19:28;17.60;99.90
13686;DHT22;6915;48.296;8.874;2022-09-11T09:22:02;17.90;87.10
13686;DHT22;6915;48.296;8.874;2022-09-11T09:24:35;18.30;1.00
13686;DHT22;6915;48.296;8.874;2022-09-11T09:27:05;18.60;1.00
13686;DHT22;6915;48.296;8.874;2022-09-11T09:29:36;18.80;99.90
13686;DHT22;6915;48.296;8.874;2022-09-11T09:32:09;19.00;9.90
13686;DHT22;6915;48.296;8.874;2022-09-11T09:34:40;19.20;99.90
13686;DHT22;6915;48.296;8.874;2022-09-11T09:37:14;19.50;99.90
13686;DHT22;6915;48.296;8.874;2022-09-11T09:39:42;19.40;99.90
13686;DHT22;6915;48.296;8.874;2022-09-11T09:42:35;19.50;1.00
13686;DHT22;6915;48.296;8.874;2022-09-11T09:45:38;19.60;1.00
13686;DHT22;6915;48.296;8.874;2022-09-11T09:48:09;19.70;99.90
13686;DHT22;6915;48.296;8.874;2022-09-11T09:50:39;19.40;99.90
13686;DHT22;6915;48.296;8.874;2022-09-11T09:53:14;19.20;1.00
13686;DHT22;6915;48.296;8.874;2022-09-11T09:55:43;19.40;1.00
13686;DHT22;6915;48.296;8.874;2022-09-11T09:58:12;19.70;99.90
13686;DHT22;6915;48.296;8.874;2022-09-11T10:00:39;19.80;1.00
13686;DHT22;6915;48.296;8.874;2022-09-11T10:03:29;20.10;1.00
13686;DHT22;6915;48.296;8.874;2022-09-11T10:05:56;20.00;99.90
13686;DHT22;6915;48.296;8.874;2022-09-11T10:08:34;19.90;74.50
13686;DHT22;6915;48.296;8.874;2022-09-11T10:11:03;20.00;99.90
13686;DHT22;6915;48.296;8.874;2022-09-11T10:13:31;20.10;1.00
13686;DHT22;6915;48.296;8.874;2022-09-11T10:16:00;19.80;1.00
13686;DHT22;6915;48.296;8.874;2022-09-11T10:18:38;19.50;99.90
13686;DHT22;6915;48.296;8.874;2022-09-11T10:21:17;19.50;1.00
13686;DHT22;6915;48.296;8.874;2022-09-11T10:23:47;19.50;1.00
13686;DHT22;6915;48.296;8.874;2022-09-11T10:26:17;19.20;1.00
13686;DHT22;6915;48.296;8.874;2022-09-11T10:28:47;18.90;1.00
13686;DHT22;6915;48.296;8.874;2022-09-11T10:31:15;18.80;99.90
13686;DHT22;6915;48.296;8.874;2022-09-11T10:35:24;18.80;1.00
13686;DHT22;6915;48.296;8.874;2022-09-11T10:38:16;19.30;1.00
13686;DHT22;6915;48.296;8.874;2022-09-11T10:40:55;19.80;99.90
13686;DHT22;6915;48.296;8.874;2022-09-11T10:43:25;20.00;99.90
13686;DHT22;6915;48.296;8.874;2022-09-11T10:46:05;20.20;1.00
13686;DHT22;6915;48.296;8.874;2022-09-11T10:51:14;20.60;1.00
13686;DHT22;6915;48.296;8.874;2022-09-11T10:53:53;20.70;1.00
13686;DHT22;6915;48.296;8.874;2022-09-11T10:56:24;20.90;99.90
13686;DHT22;6915;48.296;8.874;2022-09-11T10:58:55;20.60;1.00
13686;DHT22;6915;48.296;8.874;2022-09-11T11:01:23;20.40;1.00
13686;DHT22;6915;48.296;8.874;2022-09-11T11:03:50;20.60;1.00
13686;DHT22;6915;48.296;8.874;2022-09-11T11:06:29;20.90;1.00
13686;DHT22;6915;48.296;8.874;2022-09-11T11:09:22;21.20;99.90
13686;DHT22;6915;48.296;8.874;2022-09-11T11:14:58;21.00;1.00
13686;DHT22;6915;48.296;8.874;2022-09-11T11:17:36;20.50;1.00
13686;DHT22;6915;48.296;8.874;2022-09-11T11:20:20;20.30;99.90
13686;DHT22;6915;48.296;8.874;2022-09-11T11:26:04;20.80;99.90
13686;DHT22;6915;48.296;8.874;2022-09-11T11:28:51;21.40;1.00
13686;DHT22;6915;48.296;8.874;2022-09-11T11:31:36;21.60;99.90
13686;DHT22;6915;48.296;8.874;2022-09-11T11:34:32;21.30;99.90
13686;DHT22;6915;48.296;8.874;2022-09-11T11:37:06;21.20;1.00
13686;DHT22;6915;48.296;8.874;2022-09-11T11:39:44;21.00;83.30
13686;DHT22;6915;48.296;8.874;2022-09-11T11:42:20;21.30;99.90
13686;DHT22;6915;48.296;8.874;2022-09-11T11:44:51;21.40;1.00
13686;DHT22;6915;48.296;8.874;2022-09-11T11:47:22;21.70;1.00
13686;DHT22;6915;48.296;8.874;2022-09-11T11:49:56;21.90;1.00
13686;DHT22;6915;48.296;8.874;2022-09-11T11:52:37;22.20;1.00
13686;DHT22;6915;48.296;8.874;2022-09-11T11:55:14;22.40;99.90
13686;DHT22;6915;48.296;8.874;2022-09-11T11:57:48;22.40;1.00
13686;DHT22;6915;48.296;8.874;2022-09-11T12:00:18;22.60;1.00
13686;DHT22;6915;48.296;8.874;2022-09-11T12:02:50;22.90;99.90
13686;DHT22;6915;48.296;8.874;2022-09-11T12:05:22;23.00;1.00
13686;DHT22;6915;48.296;8.874;2022-09-11T12:07:50;22.40;1.00
13686;DHT22;6915;48.296;8.874;2022-09-11T12:10:26;21.60;1.00
13686;DHT22;6915;48.296;8.874;2022-09-11T12:12:58;21.60;1.00
13686;DHT22;6915;48.296;8.874;2022-09-11T12:15:27;21.50;1.00
13686;DHT22;6915;48.296;8.874;2022-09-11T12:17:59;21.30;92.00
13686;DHT22;6915;48.296;8.874;2022-09-11T12:20:37;21.20;61.10
13686;DHT22;6915;48.296;8.874;2022-09-11T12:23:11;21.50;1.00
13686;DHT22;6915;48.296;8.874;2022-09-11T12:26:15;21.90;99.90
13686;DHT22;6915;48.296;8.874;2022-09-11T12:28:44;22.40;99.90
13686;DHT22;6915;48.296;8.874;2022-09-11T12:31:12;22.80;99.90
13686;DHT22;6915;48.296;8.874;2022-09-11T12:33:52;23.20;1.00
13686;DHT22;6915;48.296;8.874;2022-09-11T12:39:17;23.10;48.80
13686;DHT22;6915;48.296;8.874;2022-09-11T12:41:44;22.80;99.90
13686;DHT22;6915;48.296;8.874;2022-09-11T12:44:31;22.40;99.90
13686;DHT22;6915;48.296;8.874;2022-09-11T12:47:20;21.50;1.00
13686;DHT22;6915;48.296;8.874;2022-09-11T12:49:53;21.10;99.90
13686;DHT22;6915;48.296;8.874;2022-09-11T12:52:31;20.60;99.90
13686;DHT22;6915;48.296;8.874;2022-09-11T12:55:05;20.60;99.90
13686;DHT22;6915;48.296;8.874;2022-09-11T12:57:35;20.70;53.80
13686;DHT22;6915;48.296;8.874;2022-09-11T13:00:21;21.00;1.00
13686;DHT22;6915;48.296;8.874;2022-09-11T13:02:52;20.70;99.90
13686;DHT22;6915;48.296;8.874;2022-09-11T13:05:26;20.60;99.90
13686;DHT22;6915;48.296;8.874;2022-09-11T13:08:02;21.10;1.00
13686;DHT22;6915;48.296;8.874;2022-09-11T13:10:32;21.30;1.00
13686;DHT22;6915;48.296;8.874;2022-09-11T13:13:02;21.50;1.00
13686;DHT22;6915;48.296;8.874;2022-09-11T13:15:35;21.70;1.00
13686;DHT22;6915;48.296;8.874;2022-09-11T13:18:23;21.60;1.00
13686;DHT22;6915;48.296;8.874;2022-09-11T13:21:01;21.80;99.90
13686;DHT22;6915;48.296;8.874;2022-09-11T13:23:37;22.00;1.00
13686;DHT22;6915;48.296;8.874;2022-09-11T13:26:05;22.20;1.00
13686;DHT22;6915;48.296;8.874;2022-09-11T13:28:40;21.70;1.00
13686;DHT22;6915;48.296;8.874;2022-09-11T13:31:16;21.40;1.00
13686;DHT22;6915;48.296;8.874;2022-09-11T13:33:48;21.30;1.00
13686;DHT22;6915;48.296;8.874;2022-09-11T13:36:18;21.00;1.00
13686;DHT22;6915;48.296;8.874;2022-09-11T13:38:48;21.00;1.00
13686;DHT22;6915;48.296;8.874;2022-09-11T13:41:20;21.30;99.90
13686;DHT22;6915;48.296;8.874;2022-09-11T13:43:50;21.50;1.00
13686;DHT22;6915;48.296;8.874;2022-09-11T13:46:23;21.60;99.90
13686;DHT22;6915;48.296;8.874;2022-09-11T13:48:54;21.80;1.00
13686;DHT22;6915;48.296;8.874;2022-09-11T13:51:26;21.80;99.90
13686;DHT22;6915;48.296;8.874;2022-09-11T13:54:08;21.90;1.00
13686;DHT22;6915;48.296;8.874;2022-09-11T13:56:42;22.00;99.90
13686;DHT22;6915;48.296;8.874;2022-09-11T13:59:26;22.10;99.90
13686;DHT22;6915;48.296;8.874;2022-09-11T14:02:04;21.60;99.90
13686;DHT22;6915;48.296;8.874;2022-09-11T14:04:38;21.80;1.00
13686;DHT22;6915;48.296;8.874;2022-09-11T14:07:14;21.80;1.00
13686;DHT22;6915;48.296;8.874;2022-09-11T14:09:46;21.30;99.90
13686;DHT22;6915;48.296;8.874;2022-09-11T14:12:13;21.80;1.00
13686;DHT22;6915;48.296;8.874;2022-09-11T14:14:40;22.00;99.90
13686;DHT22;6915;48.296;8.874;2022-09-11T14:17:13;22.20;99.90
13686;DHT22;6915;48.296;8.874;2022-09-11T14:19:43;22.20;40.40
13686;DHT22;6915;48.296;8.874;2022-09-11T14:22:15;22.40;1.00
13686;DHT22;6915;48.296;8.874;2022-09-11T14:24:53;22.60;16.30
13686;DHT22;6915;48.296;8.874;2022-09-11T14:27:37;22.80;1.00
13686;DHT22;6915;48.296;8.874;2022-09-11T14:30:31;23.10;1.00
13686;DHT22;6915;48.296;8.874;2022-09-11T14:33:22;23.20;1.00
13686;DHT22;6915;48.296;8.874;2022-09-11T14:35:51;23.40;99.90
13686;DHT22;6915;48.296;8.874;2022-09-11T14:38:20;23.30;1.00
13686;DHT22;6915;48.296;8.874;2022-09-11T14:40:55;23.50;1.00
13686;DHT22;6915;48.296;8.874;2022-09-11T14:43:27;23.60;99.90
13686;DHT22;6915;48.296;8.874;2022-09-11T14:45:55;23.60;99.90
13686;DHT22;6915;48.296;8.874;2022-09-11T14:48:25;23.90;1.00
13686;DHT22;6915;48.296;8.874;2022-09-11T14:50:53;24.10;99.90
13686;DHT22;6915;48.296;8.874;2022-09-11T14:53:26;24.10;99.90
13686;DHT22;6915;48.296;8.874;2022-09-11T14:55:55;24.20;1.00
13686;DHT22;6915;48.296;8.874;2022-09-11T14:58:23;24.30;99.90
13686;DHT22;6915;48.296;8.874;2022-09-11T15:00:50;24.30;99.90
13686;DHT22;6915;48.296;8.874;2022-09-11T15:03:17;24.40;99.90
13686;DHT22;6915;48.296;8.874;2022-09-11T15:05:48;24.30;99.90
13686;DHT22;6915;48.296;8.874;2022-09-11T15:08:16;24.40;1.00
13686;DHT22;6915;48.296;8.874;2022-09-11T15:10:43;24.40;99.90
13686;DHT22;6915;48.296;8.874;2022-09-11T15:13:12;24.00;99.90
13686;DHT22;6915;48.296;8.874;2022-09-11T15:15:39;23.50;99.90
13686;DHT22;6915;48.296;8.874;2022-09-11T15:18:05;23.00;1.00
13686;DHT22;6915;48.296;8.874;2022-09-11T15:20:32;22.70;1.00
13686;DHT22;6915;48.296;8.874;2022-09-11T15:23:01;22.60;1.00
13686;DHT22;6915;48.296;8.874;2022-09-11T15:25:28;22.80;1.00
13686;DHT22;6915;48.296;8.874;2022-09-11T15:27:57;23.00;1.00
13686;DHT22;6915;48.296;8.874;2022-09-11T15:30:24;23.30;1.00
13686;DHT22;6915;48.296;8.874;2022-09-11T15:32:52;23.40;1.00
13686;DHT22;6915;48.296;8.874;2022-09-11T15:35:19;23.50;1.00
13686;DHT22;6915;48.296;8.874;2022-09-11T15:37:48;23.30;1.00
13686;DHT22;6915;48.296;8.874;2022-09-11T15:40:16;23.00;99.90
13686;DHT22;6915;48.296;8.874;2022-09-11T15:42:43;22.90;1.00
13686;DHT22;6915;48.296;8.874;2022-09-11T15:45:12;22.80;99.90
13686;DHT22;6915;48.296;8.874;2022-09-11T15:47:39;22.50;55.90
13686;DHT22;6915;48.296;8.874;2022-09-11T15:50:07;21.70;1.00
13686;DHT22;6915;48.296;8.874;2022-09-11T15:52:35;21.00;34.40
13686;DHT22;6915;48.296;8.874;2022-09-11T15:55:03;20.80;59.40
13686;DHT22;6915;48.296;8.874;2022-09-11T15:57:31;20.80;99.90
13686;DHT22;6915;48.296;8.874;2022-09-11T15:59:59;20.80;99.90
13686;DHT22;6915;48.296;8.874;2022-09-11T16:02:26;20.90;99.90
13686;DHT22;6915;48.296;8.874;2022-09-11T16:04:53;21.00;1.00
13686;DHT22;6915;48.296;8.874;2022-09-11T16:07:20;20.80;25.80
13686;DHT22;6915;48.296;8.874;2022-09-11T16:09:47;20.80;99.90
13686;DHT22;6915;48.296;8.874;2022-09-11T16:12:14;20.80;99.90
13686;DHT22;6915;48.296;8.874;2022-09-11T16:14:43;20.70;99.90
13686;DHT22;6915;48.296;8.874;2022-09-11T16:17:11;20.50;99.90
13686;DHT22;6915;48.296;8.874;2022-09-11T16:19:41;20.40;99.90
13686;DHT22;6915;48.296;8.874;2022-09-11T16:22:08;20.10;18.60
13686;DHT22;6915;48.296;8.874;2022-09-11T16:24:35;19.80;99.90
13686;DHT22;6915;48.296;8.874;2022-09-11T16:27:04;19.70;1.00
13686;DHT22;6915;48.296;8.874;2022-09-11T16:29:32;19.60;1.00